sensor_id;sensor_type;location;lat;lon;timestamp;P1;durP1;ratioP1;P2;durP2;ratioP2
20619;SDS011;10469;42.720;23.252;2023-06-04T00:00:27;4.00;;;3.60;;
20619;SDS011;10469;42.720;23.252;2023-06-04T00:02:52;5.97;;;4.30;;
20619;SDS011;10469;42.720;23.252;2023-06-04T00:05:20;4.65;;;4.13;;
20619;SDS011;10469;42.720;23.252;2023-06-04T00:07:47;4.70;;;3.97;;
20619;SDS011;10469;42.720;23.252;2023-06-04T00:10:13;6.18;;;3.88;;
20619;SDS011;10469;42.720;23.252;2023-06-04T00:12:39;5.03;;;3.65;;
20619;SDS011;10469;42.720;23.252;2023-06-04T00:15:04;6.70;;;3.42;;
20619;SDS011;10469;42.720;23.252;2023-06-04T00:17:30;5.25;;;3.40;;
20619;SDS011;10469;42.720;23.252;2023-06-04T00:19:56;4.30;;;3.90;;
20619;SDS011;10469;42.720;23.252;2023-06-04T00:22:21;7.35;;;4.32;;
20619;SDS011;10469;42.720;23.252;2023-06-04T00:24:47;7.10;;;4.32;;
20619;SDS011;10469;42.720;23.252;2023-06-04T00:27:12;4.13;;;3.55;;
20619;SDS011;10469;42.720;23.252;2023-06-04T00:29:38;7.60;;;4.50;;
20619;SDS011;10469;42.720;23.252;2023-06-04T00:32:03;8.95;;;4.50;;
20619;SDS011;10469;42.720;23.252;2023-06-04T00:34:29;6.07;;;4.95;;
20619;SDS011;10469;42.720;23.252;2023-06-04T00:36:55;6.47;;;3.45;;
20619;SDS011;10469;42.720;23.252;2023-06-04T00:39:20;3.72;;;3.33;;
20619;SDS011;10469;42.720;23.252;2023-06-04T00:41:46;5.85;;;4.00;;
20619;SDS011;10469;42.720;23.252;2023-06-04T00:44:12;4.43;;;3.72;;
20619;SDS011;10469;42.720;23.252;2023-06-04T00:46:37;6.15;;;3.20;;
20619;SDS011;10469;42.720;23.252;2023-06-04T00:49:04;7.05;;;3.70;;
20619;SDS011;10469;42.720;23.252;2023-06-04T00:51:30;3.90;;;3.50;;
20619;SDS011;10469;42.720;23.252;2023-06-04T00:53:56;4.30;;;3.70;;
20619;SDS011;10469;42.720;23.252;2023-06-04T00:56:23;4.82;;;4.13;;
20619;SDS011;10469;42.720;23.252;2023-06-04T00:58:49;5.97;;;3.88;;
20619;SDS011;10469;42.720;23.252;2023-06-04T01:03:57;7.53;;;4.68;;
20619;SDS011;10469;42.720;23.252;2023-06-04T01:08:55;4.57;;;3.70;;
20619;SDS011;10469;42.720;23.252;2023-06-04T01:11:30;6.22;;;3.90;;
20619;SDS011;10469;42.720;23.252;2023-06-04T01:13:57;4.18;;;3.78;;
20619;SDS011;10469;42.720;23.252;2023-06-04T01:16:23;7.50;;;4.00;;
20619;SDS011;10469;42.720;23.252;2023-06-04T01:18:50;5.93;;;3.60;;
20619;SDS011;10469;42.720;23.252;2023-06-04T01:21:16;4.28;;;3.42;;
20619;SDS011;10469;42.720;23.252;2023-06-04T01:23:49;4.75;;;3.50;;
20619;SDS011;10469;42.720;23.252;2023-06-04T01:26:25;4.00;;;3.40;;
20619;SDS011;10469;42.720;23.252;2023-06-04T01:28:53;4.85;;;3.47;;
20619;SDS011;10469;42.720;23.252;2023-06-04T01:31:20;5.50;;;3.67;;
20619;SDS011;10469;42.720;23.252;2023-06-04T01:33:54;3.55;;;3.15;;
20619;SDS011;10469;42.720;23.252;2023-06-04T01:38:50;4.22;;;3.60;;
20619;SDS011;10469;42.720;23.252;2023-06-04T01:41:16;6.15;;;3.33;;
20619;SDS011;10469;42.720;23.252;2023-06-04T01:43:42;5.60;;;3.30;;
20619;SDS011;10469;42.720;23.252;2023-06-04T01:46:08;4.78;;;3.03;;
20619;SDS011;10469;42.720;23.252;2023-06-04T01:48:34;4.35;;;3.40;;
20619;SDS011;10469;42.720;23.252;2023-06-04T01:51:01;3.90;;;3.00;;
20619;SDS011;10469;42.720;23.252;2023-06-04T01:53:30;5.00;;;3.03;;
20619;SDS011;10469;42.720;23.252;2023-06-04T01:55:56;3.13;;;2.67;;
20619;SDS011;10469;42.720;23.252;2023-06-04T01:58:22;3.10;;;2.80;;
20619;SDS011;10469;42.720;23.252;2023-06-04T02:00:52;3.60;;;3.30;;
20619;SDS011;10469;42.720;23.252;2023-06-04T02:03:20;3.45;;;3.10;;
20619;SDS011;10469;42.720;23.252;2023-06-04T02:05:47;3.17;;;2.88;;
20619;SDS011;10469;42.720;23.252;2023-06-04T02:08:17;4.70;;;3.25;;
20619;SDS011;10469;42.720;23.252;2023-06-04T02:10:45;3.88;;;2.85;;
20619;SDS011;10469;42.720;23.252;2023-06-04T02:13:16;2.97;;;2.70;;
20619;SDS011;10469;42.720;23.252;2023-06-04T02:15:42;3.72;;;3.20;;
20619;SDS011;10469;42.720;23.252;2023-06-04T02:18:12;3.40;;;3.10;;
20619;SDS011;10469;42.720;23.252;2023-06-04T02:20:43;3.53;;;3.00;;
20619;SDS011;10469;42.720;23.252;2023-06-04T02:23:10;4.00;;;3.22;;
20619;SDS011;10469;42.720;23.252;2023-06-04T02:25:46;4.93;;;3.00;;
20619;SDS011;10469;42.720;23.252;2023-06-04T02:28:12;5.72;;;3.03;;
20619;SDS011;10469;42.720;23.252;2023-06-04T02:30:39;4.88;;;3.17;;
20619;SDS011;10469;42.720;23.252;2023-06-04T02:33:05;3.22;;;2.90;;
20619;SDS011;10469;42.720;23.252;2023-06-04T02:35:31;4.75;;;3.00;;
20619;SDS011;10469;42.720;23.252;2023-06-04T02:38:00;5.32;;;3.25;;
20619;SDS011;10469;42.720;23.252;2023-06-04T02:40:26;3.30;;;3.00;;
20619;SDS011;10469;42.720;23.252;2023-06-04T02:42:55;3.22;;;2.92;;
20619;SDS011;10469;42.720;23.252;2023-06-04T02:45:21;3.90;;;2.97;;
20619;SDS011;10469;42.720;23.252;2023-06-04T02:47:48;4.35;;;3.00;;
20619;SDS011;10469;42.720;23.252;2023-06-04T02:50:15;4.55;;;3.15;;
20619;SDS011;10469;42.720;23.252;2023-06-04T02:52:41;3.25;;;2.95;;
20619;SDS011;10469;42.720;23.252;2023-06-04T02:55:09;5.00;;;2.90;;
20619;SDS011;10469;42.720;23.252;2023-06-04T02:57:40;4.35;;;3.00;;
20619;SDS011;10469;42.720;23.252;2023-06-04T03:00:10;3.13;;;2.83;;
20619;SDS011;10469;42.720;23.252;2023-06-04T03:02:38;3.88;;;3.20;;
20619;SDS011;10469;42.720;23.252;2023-06-04T03:05:08;3.42;;;3.13;;
20619;SDS011;10469;42.720;23.252;2023-06-04T03:07:36;3.30;;;3.00;;
20619;SDS011;10469;42.720;23.252;2023-06-04T03:10:03;4.47;;;3.10;;
20619;SDS011;10469;42.720;23.252;2023-06-04T03:12:29;2.97;;;2.65;;
20619;SDS011;10469;42.720;23.252;2023-06-04T03:14:56;3.72;;;3.33;;
20619;SDS011;10469;42.720;23.252;2023-06-04T03:17:22;4.80;;;3.58;;
20619;SDS011;10469;42.720;23.252;2023-06-04T03:19:47;3.10;;;2.80;;
20619;SDS011;10469;42.720;23.252;2023-06-04T03:22:13;5.05;;;3.40;;
20619;SDS011;10469;42.720;23.252;2023-06-04T03:24:40;4.30;;;3.15;;
20619;SDS011;10469;42.720;23.252;2023-06-04T03:27:07;6.75;;;2.92;;
20619;SDS011;10469;42.720;23.252;2023-06-04T03:29:34;6.93;;;3.67;;
20619;SDS011;10469;42.720;23.252;2023-06-04T03:32:00;7.25;;;4.80;;
20619;SDS011;10469;42.720;23.252;2023-06-04T03:34:27;6.22;;;4.93;;
20619;SDS011;10469;42.720;23.252;2023-06-04T03:36:56;5.70;;;2.80;;
20619;SDS011;10469;42.720;23.252;2023-06-04T03:39:23;4.35;;;2.92;;
20619;SDS011;10469;42.720;23.252;2023-06-04T03:41:50;3.40;;;3.10;;
20619;SDS011;10469;42.720;23.252;2023-06-04T03:44:16;3.42;;;3.13;;
20619;SDS011;10469;42.720;23.252;2023-06-04T03:46:43;6.22;;;3.45;;
20619;SDS011;10469;42.720;23.252;2023-06-04T03:49:09;5.55;;;3.22;;
20619;SDS011;10469;42.720;23.252;2023-06-04T03:51:41;5.00;;;3.35;;
20619;SDS011;10469;42.720;23.252;2023-06-04T03:54:07;3.70;;;3.40;;
20619;SDS011;10469;42.720;23.252;2023-06-04T03:56:33;6.18;;;3.22;;
20619;SDS011;10469;42.720;23.252;2023-06-04T03:58:58;3.50;;;3.20;;
20619;SDS011;10469;42.720;23.252;2023-06-04T04:01:25;5.28;;;3.28;;
20619;SDS011;10469;42.720;23.252;2023-06-04T04:03:54;4.32;;;3.40;;
20619;SDS011;10469;42.720;23.252;2023-06-04T04:06:21;8.27;;;3.67;;
20619;SDS011;10469;42.720;23.252;2023-06-04T04:08:50;4.38;;;3.97;;
20619;SDS011;10469;42.720;23.252;2023-06-04T04:11:17;4.22;;;3.83;;
20619;SDS011;10469;42.720;23.252;2023-06-04T04:13:44;6.78;;;5.40;;
20619;SDS011;10469;42.720;23.252;2023-06-04T04:16:12;6.07;;;4.30;;
20619;SDS011;10469;42.720;23.252;2023-06-04T04:18:41;7.15;;;4.50;;
20619;SDS011;10469;42.720;23.252;2023-06-04T04:21:27;4.72;;;4.32;;
20619;SDS011;10469;42.720;23.252;2023-06-04T04:23:53;6.78;;;5.00;;
20619;SDS011;10469;42.720;23.252;2023-06-04T04:26:19;5.88;;;4.97;;
20619;SDS011;10469;42.720;23.252;2023-06-04T04:28:45;7.93;;;4.90;;
20619;SDS011;10469;42.720;23.252;2023-06-04T04:31:14;7.93;;;5.38;;
20619;SDS011;10469;42.720;23.252;2023-06-04T04:33:40;6.90;;;5.30;;
20619;SDS011;10469;42.720;23.252;2023-06-04T04:36:23;11.32;;;5.40;;
20619;SDS011;10469;42.720;23.252;2023-06-04T04:38:49;7.90;;;5.93;;
20619;SDS011;10469;42.720;23.252;2023-06-04T04:41:19;13.82;;;6.88;;
20619;SDS011;10469;42.720;23.252;2023-06-04T04:43:49;9.32;;;6.55;;
20619;SDS011;10469;42.720;23.252;2023-06-04T04:46:14;8.60;;;6.88;;
20619;SDS011;10469;42.720;23.252;2023-06-04T04:48:40;9.55;;;6.50;;
20619;SDS011;10469;42.720;23.252;2023-06-04T04:51:07;9.07;;;6.13;;
20619;SDS011;10469;42.720;23.252;2023-06-04T04:53:43;9.32;;;6.50;;
20619;SDS011;10469;42.720;23.252;2023-06-04T04:56:10;9.80;;;6.80;;
20619;SDS011;10469;42.720;23.252;2023-06-04T04:58:35;10.43;;;6.40;;
20619;SDS011;10469;42.720;23.252;2023-06-04T05:01:01;7.43;;;6.03;;
20619;SDS011;10469;42.720;23.252;2023-06-04T05:03:26;10.85;;;6.40;;
20619;SDS011;10469;42.720;23.252;2023-06-04T05:05:52;8.57;;;6.90;;
20619;SDS011;10469;42.720;23.252;2023-06-04T05:08:17;10.52;;;6.80;;
20619;SDS011;10469;42.720;23.252;2023-06-04T05:10:43;7.20;;;6.47;;
20619;SDS011;10469;42.720;23.252;2023-06-04T05:13:08;9.05;;;7.05;;
20619;SDS011;10469;42.720;23.252;2023-06-04T05:15:36;7.43;;;6.72;;
20619;SDS011;10469;42.720;23.252;2023-06-04T05:18:02;7.93;;;7.05;;
20619;SDS011;10469;42.720;23.252;2023-06-04T05:20:28;7.78;;;6.25;;
20619;SDS011;10469;42.720;23.252;2023-06-04T05:22:54;9.75;;;6.65;;
20619;SDS011;10469;42.720;23.252;2023-06-04T05:25:20;9.60;;;6.35;;
20619;SDS011;10469;42.720;23.252;2023-06-04T05:27:46;6.50;;;5.82;;
20619;SDS011;10469;42.720;23.252;2023-06-04T05:30:14;13.82;;;6.45;;
20619;SDS011;10469;42.720;23.252;2023-06-04T05:32:40;9.55;;;5.97;;
20619;SDS011;10469;42.720;23.252;2023-06-04T05:35:06;9.02;;;6.25;;
20619;SDS011;10469;42.720;23.252;2023-06-04T05:37:33;8.02;;;5.40;;
20619;SDS011;10469;42.720;23.252;2023-06-04T05:39:59;5.90;;;5.30;;
20619;SDS011;10469;42.720;23.252;2023-06-04T05:42:25;7.40;;;5.43;;
20619;SDS011;10469;42.720;23.252;2023-06-04T05:44:50;6.00;;;4.88;;
20619;SDS011;10469;42.720;23.252;2023-06-04T05:47:17;10.57;;;5.10;;
20619;SDS011;10469;42.720;23.252;2023-06-04T05:49:43;5.35;;;4.85;;
20619;SDS011;10469;42.720;23.252;2023-06-04T05:52:09;14.57;;;5.32;;
20619;SDS011;10469;42.720;23.252;2023-06-04T05:54:34;8.57;;;4.88;;
20619;SDS011;10469;42.720;23.252;2023-06-04T05:57:02;6.63;;;5.03;;
20619;SDS011;10469;42.720;23.252;2023-06-04T05:59:28;10.55;;;4.90;;
20619;SDS011;10469;42.720;23.252;2023-06-04T06:01:54;6.85;;;4.50;;
20619;SDS011;10469;42.720;23.252;2023-06-04T06:04:20;6.50;;;4.70;;
20619;SDS011;10469;42.720;23.252;2023-06-04T06:06:45;9.13;;;6.30;;
20619;SDS011;10469;42.720;23.252;2023-06-04T06:09:13;9.23;;;5.30;;
20619;SDS011;10469;42.720;23.252;2023-06-04T06:11:40;6.85;;;4.78;;
20619;SDS011;10469;42.720;23.252;2023-06-04T06:14:06;9.65;;;5.50;;
20619;SDS011;10469;42.720;23.252;2023-06-04T06:16:31;9.10;;;5.43;;
20619;SDS011;10469;42.720;23.252;2023-06-04T06:18:58;8.43;;;5.10;;
20619;SDS011;10469;42.720;23.252;2023-06-04T06:21:23;6.75;;;5.00;;
20619;SDS011;10469;42.720;23.252;2023-06-04T06:23:51;8.18;;;5.85;;
20619;SDS011;10469;42.720;23.252;2023-06-04T06:26:17;11.23;;;4.93;;
20619;SDS011;10469;42.720;23.252;2023-06-04T06:28:43;8.95;;;5.40;;
20619;SDS011;10469;42.720;23.252;2023-06-04T06:31:09;8.35;;;5.18;;
20619;SDS011;10469;42.720;23.252;2023-06-04T06:33:54;9.90;;;5.25;;
20619;SDS011;10469;42.720;23.252;2023-06-04T06:36:20;7.63;;;4.78;;
20619;SDS011;10469;42.720;23.252;2023-06-04T06:38:45;7.25;;;4.80;;
20619;SDS011;10469;42.720;23.252;2023-06-04T06:41:11;7.90;;;5.05;;
20619;SDS011;10469;42.720;23.252;2023-06-04T06:43:37;8.23;;;5.03;;
20619;SDS011;10469;42.720;23.252;2023-06-04T06:46:03;8.15;;;5.05;;
20619;SDS011;10469;42.720;23.252;2023-06-04T06:48:28;5.93;;;4.88;;
20619;SDS011;10469;42.720;23.252;2023-06-04T06:50:54;7.82;;;5.22;;
20619;SDS011;10469;42.720;23.252;2023-06-04T06:53:20;11.73;;;4.45;;
20619;SDS011;10469;42.720;23.252;2023-06-04T06:55:46;6.07;;;5.30;;
20619;SDS011;10469;42.720;23.252;2023-06-04T06:58:11;8.93;;;4.68;;
20619;SDS011;10469;42.720;23.252;2023-06-04T07:00:37;13.20;;;4.90;;
20619;SDS011;10469;42.720;23.252;2023-06-04T07:03:02;11.30;;;5.03;;
20619;SDS011;10469;42.720;23.252;2023-06-04T07:05:29;5.88;;;4.85;;
20619;SDS011;10469;42.720;23.252;2023-06-04T07:07:55;12.57;;;4.72;;
20619;SDS011;10469;42.720;23.252;2023-06-04T07:10:22;6.18;;;4.68;;
20619;SDS011;10469;42.720;23.252;2023-06-04T07:12:48;6.93;;;4.65;;
20619;SDS011;10469;42.720;23.252;2023-06-04T07:15:14;11.02;;;5.13;;
20619;SDS011;10469;42.720;23.252;2023-06-04T07:17:39;7.15;;;4.80;;
20619;SDS011;10469;42.720;23.252;2023-06-04T07:20:05;5.95;;;4.38;;
20619;SDS011;10469;42.720;23.252;2023-06-04T07:22:33;7.57;;;4.93;;
20619;SDS011;10469;42.720;23.252;2023-06-04T07:24:58;7.47;;;5.03;;
20619;SDS011;10469;42.720;23.252;2023-06-04T07:27:24;6.32;;;5.53;;
20619;SDS011;10469;42.720;23.252;2023-06-04T07:29:51;10.93;;;5.15;;
20619;SDS011;10469;42.720;23.252;2023-06-04T07:32:17;7.18;;;5.60;;
20619;SDS011;10469;42.720;23.252;2023-06-04T07:34:43;8.60;;;5.63;;
20619;SDS011;10469;42.720;23.252;2023-06-04T07:37:08;9.70;;;6.60;;
20619;SDS011;10469;42.720;23.252;2023-06-04T07:39:35;10.82;;;6.05;;
20619;SDS011;10469;42.720;23.252;2023-06-04T07:42:00;8.35;;;5.35;;
20619;SDS011;10469;42.720;23.252;2023-06-04T07:44:26;7.88;;;6.20;;
20619;SDS011;10469;42.720;23.252;2023-06-04T07:46:51;11.52;;;5.53;;
20619;SDS011;10469;42.720;23.252;2023-06-04T07:49:17;8.60;;;5.32;;
20619;SDS011;10469;42.720;23.252;2023-06-04T07:51:43;11.80;;;5.40;;
20619;SDS011;10469;42.720;23.252;2023-06-04T07:54:08;9.68;;;5.60;;
20619;SDS011;10469;42.720;23.252;2023-06-04T07:56:35;10.75;;;5.82;;
20619;SDS011;10469;42.720;23.252;2023-06-04T07:59:00;8.07;;;6.50;;
20619;SDS011;10469;42.720;23.252;2023-06-04T08:01:26;11.35;;;8.70;;
20619;SDS011;10469;42.720;23.252;2023-06-04T08:03:51;15.38;;;10.20;;
20619;SDS011;10469;42.720;23.252;2023-06-04T08:06:16;10.27;;;6.22;;
20619;SDS011;10469;42.720;23.252;2023-06-04T08:08:45;12.20;;;8.88;;
20619;SDS011;10469;42.720;23.252;2023-06-04T08:11:13;9.02;;;6.43;;
20619;SDS011;10469;42.720;23.252;2023-06-04T08:13:40;11.50;;;7.50;;
20619;SDS011;10469;42.720;23.252;2023-06-04T08:16:06;9.77;;;5.72;;
20619;SDS011;10469;42.720;23.252;2023-06-04T08:18:32;8.80;;;6.75;;
20619;SDS011;10469;42.720;23.252;2023-06-04T08:20:58;11.35;;;6.03;;
20619;SDS011;10469;42.720;23.252;2023-06-04T08:23:24;11.50;;;5.93;;
20619;SDS011;10469;42.720;23.252;2023-06-04T08:25:49;10.10;;;6.40;;
20619;SDS011;10469;42.720;23.252;2023-06-04T08:28:15;10.15;;;6.55;;
20619;SDS011;10469;42.720;23.252;2023-06-04T08:30:42;8.25;;;6.13;;
20619;SDS011;10469;42.720;23.252;2023-06-04T08:33:07;13.48;;;7.13;;
20619;SDS011;10469;42.720;23.252;2023-06-04T08:35:33;11.75;;;8.20;;
20619;SDS011;10469;42.720;23.252;2023-06-04T08:37:58;9.60;;;7.85;;
20619;SDS011;10469;42.720;23.252;2023-06-04T08:40:24;13.25;;;8.45;;
20619;SDS011;10469;42.720;23.252;2023-06-04T08:42:50;12.13;;;8.50;;
20619;SDS011;10469;42.720;23.252;2023-06-04T08:45:17;11.60;;;8.50;;
20619;SDS011;10469;42.720;23.252;2023-06-04T08:47:48;12.45;;;8.90;;
20619;SDS011;10469;42.720;23.252;2023-06-04T08:50:24;12.82;;;8.07;;
20619;SDS011;10469;42.720;23.252;2023-06-04T08:52:53;12.13;;;7.88;;
20619;SDS011;10469;42.720;23.252;2023-06-04T08:55:20;11.57;;;7.65;;
20619;SDS011;10469;42.720;23.252;2023-06-04T08:57:46;16.23;;;8.52;;
20619;SDS011;10469;42.720;23.252;2023-06-04T09:00:14;12.90;;;7.60;;
20619;SDS011;10469;42.720;23.252;2023-06-04T09:02:41;13.88;;;8.05;;
20619;SDS011;10469;42.720;23.252;2023-06-04T09:05:08;10.73;;;7.55;;
20619;SDS011;10469;42.720;23.252;2023-06-04T09:07:35;12.68;;;8.07;;
20619;SDS011;10469;42.720;23.252;2023-06-04T09:10:02;12.40;;;8.75;;
20619;SDS011;10469;42.720;23.252;2023-06-04T09:12:31;12.15;;;8.32;;
20619;SDS011;10469;42.720;23.252;2023-06-04T09:14:58;12.65;;;8.88;;
20619;SDS011;10469;42.720;23.252;2023-06-04T09:17:24;12.32;;;8.30;;
20619;SDS011;10469;42.720;23.252;2023-06-04T09:19:50;15.80;;;8.52;;
20619;SDS011;10469;42.720;23.252;2023-06-04T09:22:16;11.52;;;8.30;;
20619;SDS011;10469;42.720;23.252;2023-06-04T09:24:46;12.30;;;8.98;;
20619;SDS011;10469;42.720;23.252;2023-06-04T09:27:15;11.57;;;8.60;;
20619;SDS011;10469;42.720;23.252;2023-06-04T09:29:56;10.57;;;8.05;;
20619;SDS011;10469;42.720;23.252;2023-06-04T09:32:22;11.23;;;8.05;;
20619;SDS011;10469;42.720;23.252;2023-06-04T09:34:49;13.25;;;7.88;;
20619;SDS011;10469;42.720;23.252;2023-06-04T09:37:15;11.48;;;7.03;;
20619;SDS011;10469;42.720;23.252;2023-06-04T09:39:44;11.95;;;8.27;;
20619;SDS011;10469;42.720;23.252;2023-06-04T09:42:18;9.63;;;7.45;;
20619;SDS011;10469;42.720;23.252;2023-06-04T09:44:44;13.52;;;8.25;;
20619;SDS011;10469;42.720;23.252;2023-06-04T09:47:13;13.40;;;8.57;;
20619;SDS011;10469;42.720;23.252;2023-06-04T09:49:42;12.32;;;9.25;;
20619;SDS011;10469;42.720;23.252;2023-06-04T09:52:08;12.57;;;9.07;;
20619;SDS011;10469;42.720;23.252;2023-06-04T09:54:38;12.50;;;9.27;;
20619;SDS011;10469;42.720;23.252;2023-06-04T09:57:05;12.00;;;8.68;;
20619;SDS011;10469;42.720;23.252;2023-06-04T09:59:41;10.68;;;8.05;;
20619;SDS011;10469;42.720;23.252;2023-06-04T10:02:09;12.23;;;8.63;;
20619;SDS011;10469;42.720;23.252;2023-06-04T10:04:37;11.60;;;8.50;;
20619;SDS011;10469;42.720;23.252;2023-06-04T10:07:06;11.88;;;7.53;;
20619;SDS011;10469;42.720;23.252;2023-06-04T10:09:36;10.82;;;7.72;;
20619;SDS011;10469;42.720;23.252;2023-06-04T10:12:10;10.50;;;8.45;;
20619;SDS011;10469;42.720;23.252;2023-06-04T10:14:41;16.35;;;8.80;;
20619;SDS011;10469;42.720;23.252;2023-06-04T10:17:11;11.85;;;8.63;;
20619;SDS011;10469;42.720;23.252;2023-06-04T10:19:38;14.75;;;8.50;;
20619;SDS011;10469;42.720;23.252;2023-06-04T10:22:08;11.70;;;8.52;;
20619;SDS011;10469;42.720;23.252;2023-06-04T10:24:36;10.43;;;7.72;;
20619;SDS011;10469;42.720;23.252;2023-06-04T10:27:04;12.07;;;8.35;;
20619;SDS011;10469;42.720;23.252;2023-06-04T10:29:36;9.63;;;8.18;;
20619;SDS011;10469;42.720;23.252;2023-06-04T10:32:01;10.48;;;7.85;;
20619;SDS011;10469;42.720;23.252;2023-06-04T10:34:28;10.90;;;7.57;;
20619;SDS011;10469;42.720;23.252;2023-06-04T10:36:55;11.10;;;7.20;;
20619;SDS011;10469;42.720;23.252;2023-06-04T10:39:27;8.77;;;6.40;;
20619;SDS011;10469;42.720;23.252;2023-06-04T10:42:00;13.45;;;7.70;;
20619;SDS011;10469;42.720;23.252;2023-06-04T10:44:30;7.65;;;6.72;;
20619;SDS011;10469;42.720;23.252;2023-06-04T10:46:56;14.13;;;6.90;;
20619;SDS011;10469;42.720;23.252;2023-06-04T10:49:28;11.23;;;7.75;;
20619;SDS011;10469;42.720;23.252;2023-06-04T10:51:56;10.63;;;7.18;;
20619;SDS011;10469;42.720;23.252;2023-06-04T10:54:23;7.70;;;6.90;;
20619;SDS011;10469;42.720;23.252;2023-06-04T10:56:53;8.02;;;6.80;;
20619;SDS011;10469;42.720;23.252;2023-06-04T10:59:19;10.75;;;7.20;;
20619;SDS011;10469;42.720;23.252;2023-06-04T11:01:45;11.57;;;6.68;;
20619;SDS011;10469;42.720;23.252;2023-06-04T11:06:48;15.90;;;8.45;;
20619;SDS011;10469;42.720;23.252;2023-06-04T11:09:26;11.43;;;8.90;;
20619;SDS011;10469;42.720;23.252;2023-06-04T11:11:58;12.13;;;6.93;;
20619;SDS011;10469;42.720;23.252;2023-06-04T11:14:24;14.43;;;7.85;;
20619;SDS011;10469;42.720;23.252;2023-06-04T11:16:50;10.60;;;7.28;;
20619;SDS011;10469;42.720;23.252;2023-06-04T11:19:16;12.85;;;7.32;;
20619;SDS011;10469;42.720;23.252;2023-06-04T11:21:45;8.43;;;6.90;;
20619;SDS011;10469;42.720;23.252;2023-06-04T11:24:14;10.70;;;6.90;;
20619;SDS011;10469;42.720;23.252;2023-06-04T11:26:41;10.75;;;6.20;;
20619;SDS011;10469;42.720;23.252;2023-06-04T11:29:10;7.10;;;6.32;;
20619;SDS011;10469;42.720;23.252;2023-06-04T11:31:47;7.45;;;6.65;;
20619;SDS011;10469;42.720;23.252;2023-06-04T11:34:27;7.68;;;6.32;;
20619;SDS011;10469;42.720;23.252;2023-06-04T11:36:54;6.63;;;5.95;;
20619;SDS011;10469;42.720;23.252;2023-06-04T11:39:20;6.63;;;5.90;;
20619;SDS011;10469;42.720;23.252;2023-06-04T11:41:46;8.50;;;6.28;;
20619;SDS011;10469;42.720;23.252;2023-06-04T11:44:13;9.55;;;6.63;;
20619;SDS011;10469;42.720;23.252;2023-06-04T11:46:40;8.65;;;6.80;;
20619;SDS011;10469;42.720;23.252;2023-06-04T11:49:08;12.23;;;6.70;;
20619;SDS011;10469;42.720;23.252;2023-06-04T11:51:45;10.65;;;6.93;;
20619;SDS011;10469;42.720;23.252;2023-06-04T11:54:15;7.55;;;6.60;;
20619;SDS011;10469;42.720;23.252;2023-06-04T11:56:43;8.32;;;6.80;;
20619;SDS011;10469;42.720;23.252;2023-06-04T11:59:14;9.93;;;6.88;;
20619;SDS011;10469;42.720;23.252;2023-06-04T12:01:45;8.57;;;7.28;;
20619;SDS011;10469;42.720;23.252;2023-06-04T12:04:15;10.57;;;7.55;;
20619;SDS011;10469;42.720;23.252;2023-06-04T12:06:51;9.88;;;7.70;;
20619;SDS011;10469;42.720;23.252;2023-06-04T12:09:25;8.55;;;7.68;;
20619;SDS011;10469;42.720;23.252;2023-06-04T12:12:03;13.88;;;7.18;;
20619;SDS011;10469;42.720;23.252;2023-06-04T12:14:30;8.35;;;7.03;;
20619;SDS011;10469;42.720;23.252;2023-06-04T12:16:56;9.07;;;6.88;;
20619;SDS011;10469;42.720;23.252;2023-06-04T12:19:24;9.30;;;6.47;;
20619;SDS011;10469;42.720;23.252;2023-06-04T12:22:04;10.95;;;6.50;;
20619;SDS011;10469;42.720;23.252;2023-06-04T12:24:31;12.65;;;6.85;;
20619;SDS011;10469;42.720;23.252;2023-06-04T12:27:06;12.60;;;7.28;;
20619;SDS011;10469;42.720;23.252;2023-06-04T12:29:33;8.35;;;6.75;;
20619;SDS011;10469;42.720;23.252;2023-06-04T12:32:09;7.57;;;6.20;;
20619;SDS011;10469;42.720;23.252;2023-06-04T12:34:41;8.38;;;6.68;;
20619;SDS011;10469;42.720;23.252;2023-06-04T12:37:07;7.53;;;6.70;;
20619;SDS011;10469;42.720;23.252;2023-06-04T12:39:33;10.80;;;6.80;;
20619;SDS011;10469;42.720;23.252;2023-06-04T12:42:01;12.93;;;8.57;;
20619;SDS011;10469;42.720;23.252;2023-06-04T12:44:27;7.75;;;6.72;;
20619;SDS011;10469;42.720;23.252;2023-06-04T12:46:53;10.10;;;6.32;;
20619;SDS011;10469;42.720;23.252;2023-06-04T12:49:19;10.23;;;7.35;;
20619;SDS011;10469;42.720;23.252;2023-06-04T12:51:44;8.73;;;6.75;;
20619;SDS011;10469;42.720;23.252;2023-06-04T12:54:10;9.68;;;6.80;;
20619;SDS011;10469;42.720;23.252;2023-06-04T12:56:35;8.95;;;7.82;;
20619;SDS011;10469;42.720;23.252;2023-06-04T12:59:01;10.75;;;8.13;;
20619;SDS011;10469;42.720;23.252;2023-06-04T13:01:37;9.65;;;8.35;;
20619;SDS011;10469;42.720;23.252;2023-06-04T13:04:03;11.73;;;7.70;;
20619;SDS011;10469;42.720;23.252;2023-06-04T13:06:29;10.65;;;8.35;;
20619;SDS011;10469;42.720;23.252;2023-06-04T13:08:55;8.35;;;7.55;;
20619;SDS011;10469;42.720;23.252;2023-06-04T13:11:21;11.52;;;7.65;;
20619;SDS011;10469;42.720;23.252;2023-06-04T13:13:47;8.55;;;7.05;;
20619;SDS011;10469;42.720;23.252;2023-06-04T13:16:13;11.48;;;7.53;;
20619;SDS011;10469;42.720;23.252;2023-06-04T13:18:39;7.95;;;7.18;;
20619;SDS011;10469;42.720;23.252;2023-06-04T13:21:04;8.23;;;7.35;;
20619;SDS011;10469;42.720;23.252;2023-06-04T13:23:30;9.15;;;7.38;;
20619;SDS011;10469;42.720;23.252;2023-06-04T13:25:56;11.63;;;7.38;;
20619;SDS011;10469;42.720;23.252;2023-06-04T13:28:21;10.82;;;6.82;;
20619;SDS011;10469;42.720;23.252;2023-06-04T13:30:48;9.23;;;7.32;;
20619;SDS011;10469;42.720;23.252;2023-06-04T13:33:13;8.13;;;7.05;;
20619;SDS011;10469;42.720;23.252;2023-06-04T13:35:39;12.10;;;6.57;;
20619;SDS011;10469;42.720;23.252;2023-06-04T13:38:05;8.48;;;6.80;;
20619;SDS011;10469;42.720;23.252;2023-06-04T13:40:31;8.88;;;6.88;;
20619;SDS011;10469;42.720;23.252;2023-06-04T13:42:59;8.13;;;6.60;;
20619;SDS011;10469;42.720;23.252;2023-06-04T13:48:00;12.02;;;6.32;;
20619;SDS011;10469;42.720;23.252;2023-06-04T13:50:32;7.70;;;6.15;;
20619;SDS011;10469;42.720;23.252;2023-06-04T13:52:58;6.95;;;6.25;;
20619;SDS011;10469;42.720;23.252;2023-06-04T13:55:24;8.23;;;6.05;;
20619;SDS011;10469;42.720;23.252;2023-06-04T13:57:50;10.43;;;6.35;;
20619;SDS011;10469;42.720;23.252;2023-06-04T14:00:15;8.40;;;6.50;;
20619;SDS011;10469;42.720;23.252;2023-06-04T14:02:44;11.15;;;6.22;;
20619;SDS011;10469;42.720;23.252;2023-06-04T14:05:25;7.38;;;6.25;;
20619;SDS011;10469;42.720;23.252;2023-06-04T14:07:56;11.00;;;6.28;;
20619;SDS011;10469;42.720;23.252;2023-06-04T14:10:23;7.45;;;6.25;;
20619;SDS011;10469;42.720;23.252;2023-06-04T14:12:49;12.90;;;6.63;;
20619;SDS011;10469;42.720;23.252;2023-06-04T14:15:15;10.98;;;6.38;;
20619;SDS011;10469;42.720;23.252;2023-06-04T14:17:40;11.18;;;6.82;;
20619;SDS011;10469;42.720;23.252;2023-06-04T14:20:06;8.88;;;6.55;;
20619;SDS011;10469;42.720;23.252;2023-06-04T14:22:33;10.93;;;6.35;;
20619;SDS011;10469;42.720;23.252;2023-06-04T14:25:00;7.95;;;6.35;;
20619;SDS011;10469;42.720;23.252;2023-06-04T14:27:36;7.80;;;6.32;;
20619;SDS011;10469;42.720;23.252;2023-06-04T14:30:03;10.35;;;6.18;;
20619;SDS011;10469;42.720;23.252;2023-06-04T14:32:29;7.93;;;6.30;;
20619;SDS011;10469;42.720;23.252;2023-06-04T14:35:03;7.85;;;6.65;;
20619;SDS011;10469;42.720;23.252;2023-06-04T14:37:48;10.85;;;6.00;;
20619;SDS011;10469;42.720;23.252;2023-06-04T14:40:14;8.48;;;7.25;;
20619;SDS011;10469;42.720;23.252;2023-06-04T14:42:40;9.32;;;6.53;;
20619;SDS011;10469;42.720;23.252;2023-06-04T14:45:06;9.77;;;7.20;;